createdAt,value
2019-05-01T00:01:48.721Z,80.65
2019-05-01T00:04:39.918Z,80.67
2019-05-01T00:07:21.192Z,80.80
2019-05-01T00:09:53.186Z,80.94
2019-05-01T00:12:25.249Z,80.92
2019-05-01T00:14:57.654Z,80.79
2019-05-01T00:17:31.339Z,80.46
2019-05-01T00:20:03.448Z,80.15
2019-05-01T00:22:35.452Z,79.99
2019-05-01T00:25:07.722Z,80.18
2019-05-01T00:27:39.799Z,80.25
2019-05-01T00:30:28.654Z,80.54
2019-05-01T00:32:49.780Z,80.63
2019-05-01T00:35:21.826Z,81.03
2019-05-01T00:37:53.789Z,81.37
2019-05-01T00:40:25.948Z,81.49
2019-05-01T00:42:57.974Z,82.21
2019-05-01T00:45:30.318Z,82.53
2019-05-01T00:48:02.318Z,82.67
2019-05-01T00:50:34.316Z,82.83
2019-05-01T00:53:06.466Z,83.01
2019-05-01T00:56:00.280Z,83.28
2019-05-01T00:58:54.150Z,83.70
2019-05-01T01:01:43.515Z,83.99
2019-05-01T01:04:18.034Z,84.52
2019-05-01T01:06:50.098Z,84.73
2019-05-01T01:09:22.351Z,84.90
2019-05-01T01:11:54.368Z,85.16
2019-05-01T01:14:26.316Z,85.19
2019-05-01T01:16:58.317Z,85.36
2019-05-01T01:19:30.792Z,85.34
2019-05-01T01:22:02.900Z,85.20
2019-05-01T01:24:34.958Z,85.09
2019-05-01T01:27:07.022Z,84.93
2019-05-01T01:29:39.002Z,84.64
2019-05-01T01:32:11.182Z,84.42
2019-05-01T01:34:43.176Z,84.17
2019-05-01T01:37:15.183Z,83.97
2019-05-01T01:39:47.588Z,83.79
2019-05-01T01:42:19.796Z,83.92
2019-05-01T01:45:16.529Z,84.01
2019-05-01T01:48:06.074Z,84.00
2019-05-01T01:50:38.660Z,84.11
2019-05-01T01:53:12.616Z,84.29
2019-05-01T01:55:44.960Z,84.74
2019-05-01T01:58:17.841Z,85.15
2019-05-01T02:01:14.663Z,85.12
2019-05-01T02:03:50.687Z,85.09
2019-05-01T02:06:22.751Z,85.32
2019-05-01T02:08:56.846Z,85.55
2019-05-01T02:11:29.084Z,85.89
2019-05-01T02:14:01.228Z,86.14
2019-05-01T02:16:33.274Z,86.52
2019-05-01T02:19:05.385Z,87.15
2019-05-01T02:21:37.410Z,87.40
2019-05-01T02:24:09.412Z,87.49
2019-05-01T02:26:45.414Z,87.52
2019-05-01T02:29:25.964Z,87.52
2019-05-01T02:31:58.787Z,87.26
2019-05-01T02:34:31.829Z,87.28
2019-05-01T02:37:05.486Z,87.16
2019-05-01T02:39:38.832Z,87.09
2019-05-01T02:42:14.067Z,86.80
2019-05-01T02:44:50.697Z,86.94
2019-05-01T02:47:28.023Z,87.11
2019-05-01T02:50:11.096Z,86.88
2019-05-01T02:52:45.075Z,86.88
2019-05-01T02:55:29.751Z,87.01
2019-05-01T02:58:02.346Z,87.19
2019-05-01T03:00:34.805Z,87.26
2019-05-01T03:03:07.050Z,87.29
2019-05-01T03:05:39.210Z,87.24
2019-05-01T03:08:11.680Z,87.46
2019-05-01T03:10:43.708Z,87.63
2019-05-01T03:13:15.847Z,87.82
2019-05-01T03:15:47.934Z,87.77
2019-05-01T03:18:32.126Z,87.54
2019-05-01T03:21:22.408Z,87.29
2019-05-01T03:24:02.521Z,87.06
2019-05-01T03:26:35.758Z,86.83
2019-05-01T03:29:08.729Z,86.52
2019-05-01T03:31:41.467Z,86.06
2019-05-01T03:34:13.747Z,85.73
2019-05-01T03:36:46.036Z,85.37
2019-05-01T03:39:19.104Z,85.01
2019-05-01T03:41:51.273Z,84.64
2019-05-01T03:44:23.304Z,84.24
2019-05-01T03:46:55.414Z,83.88
2019-05-01T03:49:28.303Z,83.38
2019-05-01T03:52:00.630Z,82.63
2019-05-01T03:54:33.477Z,82.15
2019-05-01T03:57:05.573Z,81.76
2019-05-01T03:59:38.250Z,81.34
2019-05-01T04:02:32.785Z,80.93
2019-05-01T04:04:54.521Z,80.57
2019-05-01T04:07:26.702Z,79.89
2019-05-01T04:09:58.854Z,79.28
2019-05-01T04:12:31.354Z,78.48
2019-05-01T04:15:03.436Z,77.73
2019-05-01T04:17:41.456Z,76.81
2019-05-01T04:20:13.916Z,76.13
2019-05-01T04:22:47.721Z,75.70
2019-05-01T04:25:20.227Z,75.09
2019-05-01T04:27:53.916Z,74.08
2019-05-01T04:30:45.190Z,72.50
2019-05-01T04:33:19.258Z,71.73
2019-05-01T04:36:15.507Z,69.84
2019-05-01T04:38:47.662Z,67.71
2019-05-01T04:41:20.165Z,63.49
2019-05-01T04:43:52.672Z,62.79
2019-05-01T04:46:25.777Z,62.03
2019-05-01T04:48:57.852Z,60.63
2019-05-01T04:51:30.623Z,57.61
2019-05-01T04:54:03.126Z,54.43
2019-05-01T04:56:35.294Z,51.98
2019-05-01T04:59:08.874Z,48.49
2019-05-01T05:02:03.471Z,45.94
2019-05-01T05:04:36.081Z,39.60
2019-05-01T05:07:08.660Z,37.02
2019-05-01T05:09:46.282Z,35.56
2019-05-01T05:12:36.747Z,33.16
2019-05-01T05:15:38.973Z,31.03
2019-05-01T05:18:12.152Z,28.88
2019-05-01T05:20:48.482Z,26.65
2019-05-01T05:23:21.100Z,25.80
2019-05-01T05:25:54.074Z,23.75
2019-05-01T05:28:28.906Z,23.09
2019-05-01T05:31:04.183Z,22.40
2019-05-01T05:33:37.816Z,21.06
2019-05-01T05:36:13.411Z,20.00
2019-05-01T05:38:55.083Z,18.69
2019-05-01T05:41:27.923Z,17.47
2019-05-01T05:44:01.322Z,16.99
2019-05-01T05:46:35.759Z,16.88
2019-05-01T05:49:08.292Z,16.02
2019-05-01T05:52:03.524Z,15.78
2019-05-01T05:54:59.581Z,14.16
2019-05-01T05:57:55.424Z,13.58
2019-05-01T06:00:39.110Z,12.32
2019-05-01T06:03:34.740Z,11.77
2019-05-01T06:06:14.538Z,11.20
2019-05-01T06:08:48.508Z,11.12
2019-05-01T06:11:36.454Z,10.42
2019-05-01T06:14:18.306Z,9.63
2019-05-01T06:17:03.060Z,8.68
2019-05-01T06:19:49.645Z,8.39
2019-05-01T06:22:35.744Z,8.22
2019-05-01T06:25:22.773Z,7.40
2019-05-01T06:27:53.821Z,7.03
2019-05-01T06:30:26.474Z,5.97
2019-05-01T06:32:58.468Z,6.09
2019-05-01T06:35:33.985Z,5.82
2019-05-01T06:38:11.605Z,5.76
2019-05-01T06:40:45.524Z,5.68
2019-05-01T06:43:50.455Z,5.44
2019-05-01T06:46:38.153Z,5.13
2019-05-01T06:49:24.369Z,5.24
2019-05-01T06:51:57.716Z,4.84
2019-05-01T06:54:33.486Z,4.44
2019-05-01T06:57:06.754Z,4.69
2019-05-01T06:59:40.146Z,4.02
2019-05-01T07:02:16.087Z,4.50
2019-05-01T07:04:51.008Z,3.74
2019-05-01T07:07:25.672Z,3.12
2019-05-01T07:09:59.334Z,3.42
2019-05-01T07:12:33.552Z,2.71
2019-05-01T07:15:07.357Z,3.10
2019-05-01T07:17:39.522Z,2.72
2019-05-01T07:20:29.211Z,2.17
2019-05-01T07:23:01.542Z,2.26
2019-05-01T07:25:38.983Z,1.79
2019-05-01T07:28:10.412Z,1.53
2019-05-01T07:30:50.006Z,0.99
2019-05-01T07:33:22.813Z,0.76
2019-05-01T07:35:55.327Z,0.49
2019-05-01T07:38:27.492Z,0.51
2019-05-01T07:41:03.480Z,0.26
2019-05-01T07:44:05.757Z,0.02
2019-05-01T07:46:48.823Z,0.08
2019-05-01T07:49:26.664Z,0.00
2019-05-01T07:52:01.580Z,0.00
2019-05-01T07:54:32.755Z,0.00
2019-05-01T07:57:04.944Z,0.00
2019-05-01T07:59:37.141Z,0.00
2019-05-01T08:02:12.555Z,0.00
2019-05-01T08:04:44.506Z,0.00
2019-05-01T08:07:16.676Z,0.00
2019-05-01T08:09:50.318Z,0.00
2019-05-01T08:12:23.941Z,0.00
2019-05-01T08:14:56.201Z,0.00
2019-05-01T08:17:30.195Z,0.00
2019-05-01T08:20:39.426Z,0.00
2019-05-01T08:23:12.116Z,0.00
2019-05-01T08:25:45.293Z,0.00
2019-05-01T08:28:22.703Z,0.00
2019-05-01T08:31:23.059Z,0.00
2019-05-01T08:34:03.544Z,0.00
2019-05-01T08:36:35.555Z,0.00
2019-05-01T08:39:09.450Z,0.00
2019-05-01T08:41:42.506Z,0.00
2019-05-01T08:44:14.629Z,0.00
2019-05-01T08:46:58.564Z,0.00
2019-05-01T08:49:58.735Z,0.00
2019-05-01T08:52:31.392Z,0.00
2019-05-01T08:55:04.193Z,0.00
2019-05-01T08:57:39.307Z,0.14
2019-05-01T09:00:11.557Z,0.00
2019-05-01T09:02:43.565Z,0.00
2019-05-01T09:05:28.255Z,0.00
2019-05-01T09:07:51.151Z,0.00
2019-05-01T09:10:23.456Z,0.00
2019-05-01T09:12:55.463Z,0.00
2019-05-01T09:15:27.740Z,0.00
2019-05-01T09:17:59.740Z,0.00
2019-05-01T09:20:33.209Z,0.00
2019-05-01T09:23:05.173Z,0.00
2019-05-01T09:25:43.380Z,0.00
2019-05-01T09:28:21.872Z,0.00
2019-05-01T09:31:01.629Z,0.00
2019-05-01T09:33:32.040Z,0.00
2019-05-01T09:36:04.228Z,0.00
2019-05-01T09:38:36.432Z,0.00
2019-05-01T09:41:08.541Z,0.00
2019-05-01T09:43:40.666Z,0.00
2019-05-01T09:46:12.767Z,0.00
2019-05-01T09:48:45.447Z,0.00
2019-05-01T09:51:35.122Z,0.00
2019-05-01T09:54:31.941Z,0.00
2019-05-01T09:57:03.972Z,0.00
2019-05-01T09:59:35.971Z,0.00
2019-05-01T10:02:09.147Z,0.00
2019-05-01T10:04:41.331Z,0.00
2019-05-01T10:07:13.399Z,0.00
2019-05-01T10:09:47.266Z,0.00
2019-05-01T10:12:19.255Z,0.00
2019-05-01T10:14:51.310Z,0.00
2019-05-01T10:17:23.264Z,0.00
2019-05-01T10:19:55.240Z,0.00
2019-05-01T10:22:27.225Z,0.00
2019-05-01T10:24:59.187Z,0.00
2019-05-01T10:27:35.780Z,0.00
2019-05-01T10:30:31.733Z,0.00
2019-05-01T10:33:05.955Z,0.00
2019-05-01T10:36:02.775Z,0.00
2019-05-01T10:38:34.742Z,0.00
2019-05-01T10:41:09.140Z,0.00
2019-05-01T10:43:41.175Z,0.00
2019-05-01T10:46:13.150Z,0.00
2019-05-01T10:48:45.184Z,0.00
2019-05-01T10:51:19.880Z,0.00
2019-05-01T10:53:53.338Z,0.00
2019-05-01T10:56:25.331Z,0.00
2019-05-01T10:58:57.276Z,0.00
2019-05-01T11:01:48.696Z,0.00
2019-05-01T11:04:20.843Z,0.00
2019-05-01T11:06:52.912Z,0.00
2019-05-01T11:09:24.877Z,0.00
2019-05-01T11:11:56.920Z,0.00
2019-05-01T11:14:28.939Z,0.00
2019-05-01T11:17:01.289Z,0.00
2019-05-01T11:19:33.302Z,0.00
2019-05-01T11:22:05.249Z,0.00
2019-05-01T11:24:37.476Z,0.00
2019-05-01T11:27:09.495Z,0.00
2019-05-01T11:29:41.686Z,0.00
2019-05-01T11:32:35.480Z,1.23
2019-05-01T11:35:30.211Z,3.41
2019-05-01T11:38:10.861Z,4.74
2019-05-01T11:40:47.083Z,7.43
2019-05-01T11:43:19.030Z,8.39
2019-05-01T11:45:51.172Z,10.18
2019-05-01T11:48:25.163Z,10.49
2019-05-01T11:50:56.851Z,11.85
2019-05-01T11:53:29.111Z,12.57
2019-05-01T11:56:01.638Z,13.41
2019-05-01T11:58:33.622Z,14.11
2019-05-01T12:01:07.200Z,16.29
2019-05-01T12:03:39.176Z,15.90
2019-05-01T12:06:22.372Z,15.22
2019-05-01T12:08:44.883Z,15.88
2019-05-01T12:11:18.664Z,16.08
2019-05-01T12:13:51.032Z,15.94
2019-05-01T12:16:40.508Z,16.61
2019-05-01T12:19:12.962Z,16.74
2019-05-01T12:21:44.956Z,16.66
2019-05-01T12:24:16.922Z,16.85
2019-05-01T12:26:48.932Z,16.76
2019-05-01T12:29:21.200Z,16.41
2019-05-01T12:31:53.194Z,16.21
2019-05-01T12:34:25.199Z,15.78
2019-05-01T12:37:17.610Z,15.89
2019-05-01T12:39:49.682Z,16.04
2019-05-01T12:42:23.101Z,16.69
2019-05-01T12:44:55.097Z,16.97
2019-05-01T12:47:46.499Z,17.26
2019-05-01T12:50:18.884Z,17.41
2019-05-01T12:53:04.190Z,17.39
2019-05-01T12:56:04.416Z,17.32
2019-05-01T12:58:37.644Z,17.62
2019-05-01T13:01:09.669Z,18.58
2019-05-01T13:03:41.651Z,18.51
2019-05-01T13:06:14.486Z,18.40
2019-05-01T13:08:46.566Z,18.23
2019-05-01T13:11:18.535Z,17.96
2019-05-01T13:13:50.885Z,18.92
2019-05-01T13:16:22.862Z,19.15
2019-05-01T13:18:54.842Z,18.99
2019-05-01T13:21:26.901Z,19.09
2019-05-01T13:23:58.860Z,18.63
2019-05-01T13:26:52.026Z,18.90
2019-05-01T13:29:35.198Z,19.53
2019-05-01T13:32:24.831Z,20.04
2019-05-01T13:34:56.939Z,20.72
2019-05-01T13:37:28.904Z,20.81
2019-05-01T13:40:01.277Z,21.09
2019-05-01T13:42:33.224Z,20.52
2019-05-01T13:45:05.587Z,20.20
2019-05-01T13:47:37.609Z,20.40
2019-05-01T13:50:10.519Z,19.98
2019-05-01T13:52:42.525Z,19.92
2019-05-01T13:55:15.061Z,20.84
2019-05-01T13:57:47.170Z,20.92
2019-05-01T14:00:21.007Z,20.68
2019-05-01T14:02:52.991Z,20.45
2019-05-01T14:05:25.311Z,20.06
2019-05-01T14:07:57.308Z,20.11
2019-05-01T14:10:29.361Z,20.14
2019-05-01T14:13:01.405Z,20.36
2019-05-01T14:15:33.442Z,20.59
2019-05-01T14:18:05.523Z,21.05
2019-05-01T14:20:59.139Z,21.48
2019-05-01T14:23:42.404Z,22.21
2019-05-01T14:26:14.468Z,22.43
2019-05-01T14:28:46.426Z,22.98
2019-05-01T14:31:18.395Z,23.23
2019-05-01T14:33:50.420Z,23.25
2019-05-01T14:36:22.381Z,23.27
2019-05-01T14:38:54.365Z,23.23
2019-05-01T14:41:26.334Z,23.65
2019-05-01T14:43:58.365Z,23.27
2019-05-01T14:46:30.617Z,22.76
2019-05-01T14:49:02.585Z,22.85
2019-05-01T14:51:34.581Z,22.93
2019-05-01T14:54:06.756Z,23.45
2019-05-01T14:56:38.726Z,23.89
2019-05-01T14:59:11.112Z,24.15
2019-05-01T15:01:43.090Z,24.69
2019-05-01T15:04:15.030Z,24.31
2019-05-01T15:06:47.029Z,24.20
2019-05-01T15:09:19.019Z,23.71
2019-05-01T15:11:51.310Z,23.77
2019-05-01T15:14:47.983Z,23.80
2019-05-01T15:17:29.312Z,23.79
2019-05-01T15:20:03.764Z,24.17
2019-05-01T15:22:35.792Z,24.30
2019-05-01T15:25:09.314Z,24.42
2019-05-01T15:27:41.320Z,24.66
2019-05-01T15:30:18.981Z,24.38
2019-05-01T15:32:51.215Z,24.37
2019-05-01T15:35:23.197Z,24.89
2019-05-01T15:37:56.752Z,25.26
2019-05-01T15:40:37.726Z,25.62
2019-05-01T15:43:47.308Z,25.88
2019-05-01T15:46:19.404Z,26.67
2019-05-01T15:48:51.347Z,26.79
2019-05-01T15:51:23.343Z,26.29
2019-05-01T15:53:55.464Z,26.32
2019-05-01T15:56:27.426Z,26.62
2019-05-01T15:58:59.407Z,26.68
2019-05-01T16:01:31.350Z,26.51
2019-05-01T16:04:03.374Z,26.77
2019-05-01T16:06:35.352Z,27.16
2019-05-01T16:09:08.629Z,27.09
2019-05-01T16:12:11.391Z,26.69
2019-05-01T16:14:49.419Z,26.63
2019-05-01T16:17:21.376Z,26.65
2019-05-01T16:19:53.351Z,26.79
2019-05-01T16:22:25.358Z,26.71
2019-05-01T16:24:57.328Z,26.99
2019-05-01T16:27:29.328Z,27.05
2019-05-01T16:30:01.344Z,27.06
2019-05-01T16:32:33.305Z,26.94
2019-05-01T16:35:06.255Z,26.98
2019-05-01T16:37:38.707Z,27.08
2019-05-01T16:40:38.746Z,27.50
2019-05-01T16:43:12.272Z,27.81
2019-05-01T16:45:44.322Z,28.26
2019-05-01T16:48:16.320Z,29.00
2019-05-01T16:50:48.364Z,28.80
2019-05-01T16:53:20.717Z,29.02
2019-05-01T16:55:52.705Z,29.14
2019-05-01T16:58:25.099Z,29.44
2019-05-01T17:01:07.512Z,29.46
2019-05-01T17:04:07.357Z,29.57
2019-05-01T17:07:01.407Z,29.44
2019-05-01T17:10:10.537Z,29.44
2019-05-01T17:12:47.269Z,29.39
2019-05-01T17:15:27.955Z,29.61
2019-05-01T17:18:00.381Z,29.84
2019-05-01T17:20:32.487Z,30.13
2019-05-01T17:23:05.697Z,30.07
2019-05-01T17:25:38.112Z,30.26
2019-05-01T17:28:10.089Z,30.43
2019-05-01T17:30:46.600Z,30.62
2019-05-01T17:33:20.792Z,30.72
2019-05-01T17:35:52.490Z,31.02
2019-05-01T17:38:24.671Z,31.26
2019-05-01T17:40:56.725Z,31.40
2019-05-01T17:43:28.755Z,31.83
2019-05-01T17:46:01.128Z,32.28
2019-05-01T17:48:33.727Z,32.76
2019-05-01T17:51:07.048Z,33.24
2019-05-01T17:53:39.126Z,34.97
2019-05-01T17:56:15.231Z,36.39
2019-05-01T17:58:44.907Z,37.33
2019-05-01T18:01:37.242Z,37.68
2019-05-01T18:04:23.473Z,38.96
2019-05-01T18:06:55.641Z,39.49
2019-05-01T18:09:27.584Z,41.33
2019-05-01T18:11:59.661Z,42.46
2019-05-01T18:14:31.652Z,44.91
2019-05-01T18:17:03.865Z,46.76
2019-05-01T18:19:35.918Z,47.73
2019-05-01T18:22:18.460Z,47.73
2019-05-01T18:25:10.119Z,47.95
2019-05-01T18:27:59.484Z,48.05
2019-05-01T18:30:36.130Z,49.29
2019-05-01T18:33:08.144Z,51.25
2019-05-01T18:35:40.517Z,54.73
2019-05-01T18:38:31.340Z,56.82
2019-05-01T18:41:22.176Z,58.39
2019-05-01T18:43:54.217Z,59.22
2019-05-01T18:46:26.450Z,59.95
2019-05-01T18:48:58.578Z,60.32
2019-05-01T18:51:30.622Z,61.03
2019-05-01T18:54:02.737Z,60.61
2019-05-01T18:56:38.166Z,61.48
2019-05-01T18:59:08.640Z,63.73
2019-05-01T19:01:43.883Z,65.59
2019-05-01T19:04:18.404Z,66.77
2019-05-01T19:06:48.531Z,67.97
2019-05-01T19:09:29.665Z,69.80
2019-05-01T19:11:54.898Z,70.36
2019-05-01T19:14:30.621Z,71.49
2019-05-01T19:17:02.509Z,73.41
2019-05-01T19:19:34.538Z,74.65
2019-05-01T19:22:06.923Z,74.50
2019-05-01T19:24:40.146Z,74.81
2019-05-01T19:27:14.320Z,75.33
2019-05-01T19:29:46.651Z,75.21
2019-05-01T19:32:20.297Z,75.93
2019-05-01T19:34:52.454Z,76.23
2019-05-01T19:37:28.188Z,76.36
2019-05-01T19:39:58.373Z,77.27
2019-05-01T19:42:30.699Z,77.08
2019-05-01T19:45:02.732Z,77.04
2019-05-01T19:47:34.788Z,76.89
2019-05-01T19:50:09.482Z,77.04
2019-05-01T19:52:41.840Z,77.51
2019-05-01T19:55:13.945Z,76.97
2019-05-01T19:57:45.912Z,76.76
2019-05-01T20:00:40.518Z,76.74
2019-05-01T20:03:12.542Z,77.56
2019-05-01T20:05:44.682Z,78.01
2019-05-01T20:08:16.749Z,78.60
2019-05-01T20:10:48.815Z,79.55
2019-05-01T20:13:21.132Z,80.45
2019-05-01T20:15:53.341Z,80.95
2019-05-01T20:18:25.502Z,80.82
2019-05-01T20:20:57.500Z,81.67
2019-05-01T20:23:31.243Z,82.63
2019-05-01T20:26:03.912Z,83.75
2019-05-01T20:28:37.403Z,84.50
2019-05-01T20:31:09.641Z,85.12
2019-05-01T20:33:44.414Z,85.65
2019-05-01T20:36:15.277Z,86.56
2019-05-01T20:38:47.262Z,87.39
2019-05-01T20:41:19.293Z,88.28
2019-05-01T20:43:51.455Z,88.81
2019-05-01T20:46:26.250Z,88.88
2019-05-01T20:49:01.004Z,89.74
2019-05-01T20:51:31.236Z,90.28
2019-05-01T20:54:03.258Z,90.80
2019-05-01T20:56:44.235Z,91.38
2019-05-01T20:59:16.227Z,91.54
2019-05-01T21:01:48.432Z,90.57
2019-05-01T21:04:43.127Z,90.10
2019-05-01T21:07:19.912Z,90.60
2019-05-01T21:09:56.830Z,90.72
2019-05-01T21:12:25.750Z,91.13
2019-05-01T21:14:57.765Z,90.75
2019-05-01T21:17:29.694Z,91.09
2019-05-01T21:20:03.721Z,91.67
2019-05-01T21:22:35.635Z,91.77
2019-05-01T21:25:07.722Z,92.12
2019-05-01T21:27:40.163Z,92.24
2019-05-01T21:30:13.883Z,92.20
2019-05-01T21:32:45.928Z,92.09
2019-05-01T21:35:17.930Z,91.73
2019-05-01T21:37:50.284Z,91.05
2019-05-01T21:40:23.017Z,89.96
2019-05-01T21:42:55.863Z,89.24
2019-05-01T21:45:28.068Z,88.41
2019-05-01T21:48:00.036Z,87.49
2019-05-01T21:50:33.568Z,87.25
2019-05-01T21:53:06.965Z,86.82
2019-05-01T21:55:39.303Z,86.93
2019-05-01T21:58:11.309Z,86.70
2019-05-01T22:00:43.831Z,86.05
2019-05-01T22:03:16.601Z,85.89
2019-05-01T22:05:50.332Z,85.68
2019-05-01T22:08:22.305Z,85.64
2019-05-01T22:10:57.623Z,85.73
2019-05-01T22:13:28.165Z,85.20
2019-05-01T22:16:06.709Z,85.23
2019-05-01T22:18:57.545Z,85.31
2019-05-01T22:22:06.381Z,85.48
2019-05-01T22:24:57.317Z,85.86
2019-05-01T22:27:37.152Z,86.04
2019-05-01T22:30:21.347Z,86.32
2019-05-01T22:32:53.783Z,87.07
2019-05-01T22:35:27.622Z,87.51
2019-05-01T22:37:59.579Z,88.11
2019-05-01T22:40:49.290Z,88.40
2019-05-01T22:43:21.441Z,88.62
2019-05-01T22:45:56.193Z,89.33
2019-05-01T22:48:27.148Z,89.71
2019-05-01T22:51:03.797Z,89.91
2019-05-01T22:53:35.757Z,90.02
2019-05-01T22:56:07.813Z,90.54
2019-05-01T22:58:39.783Z,90.45
2019-05-01T23:01:13.391Z,90.43
2019-05-01T23:03:52.739Z,90.51
2019-05-01T23:06:24.737Z,90.32
2019-05-01T23:08:56.708Z,90.44
2019-05-01T23:11:30.937Z,90.05
2019-05-01T23:14:03.048Z,89.60
2019-05-01T23:16:40.692Z,89.14
2019-05-01T23:19:12.775Z,88.89
2019-05-01T23:21:45.898Z,88.80
2019-05-01T23:24:18.699Z,88.82
2019-05-01T23:26:53.007Z,89.03
2019-05-01T23:29:25.103Z,89.27
2019-05-01T23:31:57.454Z,89.43
2019-05-01T23:34:29.435Z,89.46
2019-05-01T23:37:01.383Z,89.70
2019-05-01T23:39:39.713Z,89.99
2019-05-01T23:42:07.031Z,90.33
2019-05-01T23:44:42.919Z,90.71
2019-05-01T23:47:12.649Z,90.87
2019-05-01T23:49:47.724Z,91.25
2019-05-01T23:52:18.461Z,91.38
2019-05-01T23:54:51.489Z,91.54
2019-05-01T23:57:23.677Z,91.44
2019-05-01T23:59:55.765Z,91.38
